Weather at Scholes International At Galveston Airport

Public forecast

Using degrees Fahrenheit for public forecast. Weather courtesy of forecast.io.

Current aviation weather report (METAR) for Scholes International At Galveston Airport

Retrieved 2022/08/16 08:52 UTC (17 minutes ago):

KGLS 160852Z AUTO 17008KT 10SM CLR 29/23 A2993 RMK AO2 SLP134 T02890233 55013

Aviation forecast (TAF) for Scholes International At Galveston Airport

Retrieved 2022/08/16 06:27 UTC (3 hours ago):

TAF KGLS 160520Z 1606/1706 16006KT P6SM SCT025 BKN250 FM160700 18009KT P6SM FEW025 FEW250 FM161500 16008KT P6SM FEW025 FEW250 FM162000 17010KT P6SM FEW030 SCT250